sensor_id;sensor_type;location;lat;lon;timestamp;temperature;humidity
35559;DHT22;21661;50.794;-1.066;2023-09-19T00:00:36;16.30;99.90
35559;DHT22;21661;50.794;-1.066;2023-09-19T00:03:02;16.30;99.90
35559;DHT22;21661;50.794;-1.066;2023-09-19T00:05:28;16.40;99.90
35559;DHT22;21661;50.794;-1.066;2023-09-19T00:07:54;16.30;99.90
35559;DHT22;21661;50.794;-1.066;2023-09-19T00:10:21;16.30;99.90
35559;DHT22;21661;50.794;-1.066;2023-09-19T00:12:47;16.30;99.90
35559;DHT22;21661;50.794;-1.066;2023-09-19T00:15:13;16.20;99.90
35559;DHT22;21661;50.794;-1.066;2023-09-19T00:17:38;16.10;99.90
35559;DHT22;21661;50.794;-1.066;2023-09-19T00:20:06;16.10;99.90
35559;DHT22;21661;50.794;-1.066;2023-09-19T00:22:41;16.10;99.90
35559;DHT22;21661;50.794;-1.066;2023-09-19T00:25:08;16.00;99.90
35559;DHT22;21661;50.794;-1.066;2023-09-19T00:27:35;16.10;99.90
35559;DHT22;21661;50.794;-1.066;2023-09-19T00:30:00;16.00;99.90
35559;DHT22;21661;50.794;-1.066;2023-09-19T00:32:26;16.00;99.90
35559;DHT22;21661;50.794;-1.066;2023-09-19T00:34:57;16.00;99.90
35559;DHT22;21661;50.794;-1.066;2023-09-19T00:37:23;16.00;99.90
35559;DHT22;21661;50.794;-1.066;2023-09-19T00:39:48;16.10;99.90
35559;DHT22;21661;50.794;-1.066;2023-09-19T00:42:20;16.10;99.90
35559;DHT22;21661;50.794;-1.066;2023-09-19T00:44:46;16.10;99.90
35559;DHT22;21661;50.794;-1.066;2023-09-19T00:47:12;16.10;99.90
35559;DHT22;21661;50.794;-1.066;2023-09-19T00:49:42;16.10;99.90
35559;DHT22;21661;50.794;-1.066;2023-09-19T00:52:07;16.10;99.90
35559;DHT22;21661;50.794;-1.066;2023-09-19T00:54:35;16.10;99.90
35559;DHT22;21661;50.794;-1.066;2023-09-19T00:57:01;16.10;99.90
35559;DHT22;21661;50.794;-1.066;2023-09-19T00:59:27;16.10;99.90
35559;DHT22;21661;50.794;-1.066;2023-09-19T01:01:53;16.20;99.90
35559;DHT22;21661;50.794;-1.066;2023-09-19T01:04:19;16.20;99.90
35559;DHT22;21661;50.794;-1.066;2023-09-19T01:06:45;16.20;99.90
35559;DHT22;21661;50.794;-1.066;2023-09-19T01:09:11;16.20;99.90
35559;DHT22;21661;50.794;-1.066;2023-09-19T01:11:40;16.20;99.90
35559;DHT22;21661;50.794;-1.066;2023-09-19T01:16:45;16.30;99.90
35559;DHT22;21661;50.794;-1.066;2023-09-19T01:27:08;16.20;99.90
35559;DHT22;21661;50.794;-1.066;2023-09-19T01:29:44;16.20;99.90
35559;DHT22;21661;50.794;-1.066;2023-09-19T01:32:13;16.20;99.90
35559;DHT22;21661;50.794;-1.066;2023-09-19T01:34:47;16.20;99.90
35559;DHT22;21661;50.794;-1.066;2023-09-19T01:37:17;16.20;99.90
35559;DHT22;21661;50.794;-1.066;2023-09-19T01:39:50;16.20;99.90
35559;DHT22;21661;50.794;-1.066;2023-09-19T01:45:08;16.20;99.90
35559;DHT22;21661;50.794;-1.066;2023-09-19T01:47:37;16.20;99.90
35559;DHT22;21661;50.794;-1.066;2023-09-19T01:52:31;16.20;99.90
35559;DHT22;21661;50.794;-1.066;2023-09-19T01:55:05;16.20;99.90
35559;DHT22;21661;50.794;-1.066;2023-09-19T01:57:34;16.20;99.90
35559;DHT22;21661;50.794;-1.066;2023-09-19T02:00:07;16.20;99.90
35559;DHT22;21661;50.794;-1.066;2023-09-19T02:02:37;16.20;99.90
35559;DHT22;21661;50.794;-1.066;2023-09-19T02:05:03;16.20;99.90
35559;DHT22;21661;50.794;-1.066;2023-09-19T02:07:29;16.20;99.90
35559;DHT22;21661;50.794;-1.066;2023-09-19T02:09:57;16.20;99.90
35559;DHT22;21661;50.794;-1.066;2023-09-19T02:12:24;16.20;99.90
35559;DHT22;21661;50.794;-1.066;2023-09-19T02:14:49;16.20;99.90
35559;DHT22;21661;50.794;-1.066;2023-09-19T02:17:15;16.20;99.90
35559;DHT22;21661;50.794;-1.066;2023-09-19T02:19:41;16.20;99.90
35559;DHT22;21661;50.794;-1.066;2023-09-19T02:22:06;16.30;99.90
35559;DHT22;21661;50.794;-1.066;2023-09-19T02:24:33;16.30;99.90
35559;DHT22;21661;50.794;-1.066;2023-09-19T02:26:58;16.30;99.90
35559;DHT22;21661;50.794;-1.066;2023-09-19T02:29:25;16.30;99.90
35559;DHT22;21661;50.794;-1.066;2023-09-19T02:31:52;16.40;99.90
35559;DHT22;21661;50.794;-1.066;2023-09-19T02:34:18;16.30;99.90
35559;DHT22;21661;50.794;-1.066;2023-09-19T02:36:44;16.40;99.90
35559;DHT22;21661;50.794;-1.066;2023-09-19T02:39:10;16.40;99.90
35559;DHT22;21661;50.794;-1.066;2023-09-19T02:41:36;16.40;99.90
35559;DHT22;21661;50.794;-1.066;2023-09-19T02:44:02;16.40;99.90
35559;DHT22;21661;50.794;-1.066;2023-09-19T02:46:27;16.40;99.90
35559;DHT22;21661;50.794;-1.066;2023-09-19T02:48:53;16.40;99.90
35559;DHT22;21661;50.794;-1.066;2023-09-19T02:51:20;16.50;99.90
35559;DHT22;21661;50.794;-1.066;2023-09-19T02:53:45;16.50;99.90
35559;DHT22;21661;50.794;-1.066;2023-09-19T02:56:12;16.60;99.90
35559;DHT22;21661;50.794;-1.066;2023-09-19T02:58:39;16.60;99.90
35559;DHT22;21661;50.794;-1.066;2023-09-19T03:01:10;16.50;99.90
35559;DHT22;21661;50.794;-1.066;2023-09-19T03:03:37;16.50;99.90
35559;DHT22;21661;50.794;-1.066;2023-09-19T03:06:05;16.50;99.90
35559;DHT22;21661;50.794;-1.066;2023-09-19T03:08:33;16.50;99.90
35559;DHT22;21661;50.794;-1.066;2023-09-19T03:11:01;16.50;99.90
35559;DHT22;21661;50.794;-1.066;2023-09-19T03:13:27;16.50;99.90
35559;DHT22;21661;50.794;-1.066;2023-09-19T03:15:54;16.60;99.90
35559;DHT22;21661;50.794;-1.066;2023-09-19T03:18:22;16.60;99.90
35559;DHT22;21661;50.794;-1.066;2023-09-19T03:20:57;16.60;99.90
35559;DHT22;21661;50.794;-1.066;2023-09-19T03:23:25;16.70;99.90
35559;DHT22;21661;50.794;-1.066;2023-09-19T03:25:51;16.70;99.90
35559;DHT22;21661;50.794;-1.066;2023-09-19T03:28:17;16.70;99.90
35559;DHT22;21661;50.794;-1.066;2023-09-19T03:30:43;16.70;99.90
35559;DHT22;21661;50.794;-1.066;2023-09-19T03:33:09;16.70;99.90
35559;DHT22;21661;50.794;-1.066;2023-09-19T03:35:37;16.70;99.90
35559;DHT22;21661;50.794;-1.066;2023-09-19T03:38:03;16.70;99.90
35559;DHT22;21661;50.794;-1.066;2023-09-19T03:40:29;16.70;99.90
35559;DHT22;21661;50.794;-1.066;2023-09-19T03:42:55;16.70;99.90
35559;DHT22;21661;50.794;-1.066;2023-09-19T03:45:20;16.80;99.90
35559;DHT22;21661;50.794;-1.066;2023-09-19T03:47:46;16.70;99.90
35559;DHT22;21661;50.794;-1.066;2023-09-19T03:50:13;16.80;99.90
35559;DHT22;21661;50.794;-1.066;2023-09-19T03:52:43;16.80;99.90
35559;DHT22;21661;50.794;-1.066;2023-09-19T03:55:09;16.80;99.90
35559;DHT22;21661;50.794;-1.066;2023-09-19T03:57:35;16.80;99.90
35559;DHT22;21661;50.794;-1.066;2023-09-19T04:00:01;16.80;99.90
35559;DHT22;21661;50.794;-1.066;2023-09-19T04:02:26;16.90;99.90
35559;DHT22;21661;50.794;-1.066;2023-09-19T04:04:58;16.90;99.90
35559;DHT22;21661;50.794;-1.066;2023-09-19T04:07:23;16.90;99.90
35559;DHT22;21661;50.794;-1.066;2023-09-19T04:09:51;16.90;99.90
35559;DHT22;21661;50.794;-1.066;2023-09-19T04:12:18;16.90;99.90
35559;DHT22;21661;50.794;-1.066;2023-09-19T04:14:44;17.00;99.90
35559;DHT22;21661;50.794;-1.066;2023-09-19T04:17:10;16.90;99.90
35559;DHT22;21661;50.794;-1.066;2023-09-19T04:19:36;16.90;99.90
35559;DHT22;21661;50.794;-1.066;2023-09-19T04:22:01;16.90;99.90
35559;DHT22;21661;50.794;-1.066;2023-09-19T04:24:28;16.90;99.90
35559;DHT22;21661;50.794;-1.066;2023-09-19T04:26:53;16.90;99.90
35559;DHT22;21661;50.794;-1.066;2023-09-19T04:29:19;16.90;99.90
35559;DHT22;21661;50.794;-1.066;2023-09-19T04:31:45;16.90;99.90
35559;DHT22;21661;50.794;-1.066;2023-09-19T04:34:11;16.90;99.90
35559;DHT22;21661;50.794;-1.066;2023-09-19T04:36:40;16.80;99.90
35559;DHT22;21661;50.794;-1.066;2023-09-19T04:39:05;16.90;99.90
35559;DHT22;21661;50.794;-1.066;2023-09-19T04:41:32;16.80;99.90
35559;DHT22;21661;50.794;-1.066;2023-09-19T04:43:58;16.80;99.90
35559;DHT22;21661;50.794;-1.066;2023-09-19T04:46:24;16.80;99.90
35559;DHT22;21661;50.794;-1.066;2023-09-19T04:48:49;16.80;99.90
35559;DHT22;21661;50.794;-1.066;2023-09-19T04:51:14;16.70;99.90
35559;DHT22;21661;50.794;-1.066;2023-09-19T04:53:40;16.70;99.90
35559;DHT22;21661;50.794;-1.066;2023-09-19T04:56:06;16.70;99.90
35559;DHT22;21661;50.794;-1.066;2023-09-19T04:58:33;16.70;99.90
35559;DHT22;21661;50.794;-1.066;2023-09-19T05:00:59;16.70;99.90
35559;DHT22;21661;50.794;-1.066;2023-09-19T05:03:24;16.70;99.90
35559;DHT22;21661;50.794;-1.066;2023-09-19T05:05:50;16.70;99.90
35559;DHT22;21661;50.794;-1.066;2023-09-19T05:08:15;16.60;99.90
35559;DHT22;21661;50.794;-1.066;2023-09-19T05:10:41;16.60;99.90
35559;DHT22;21661;50.794;-1.066;2023-09-19T05:13:06;16.60;99.90
35559;DHT22;21661;50.794;-1.066;2023-09-19T05:15:33;16.70;99.90
35559;DHT22;21661;50.794;-1.066;2023-09-19T05:17:58;16.60;99.90
35559;DHT22;21661;50.794;-1.066;2023-09-19T05:20:24;16.60;99.90
35559;DHT22;21661;50.794;-1.066;2023-09-19T05:23:07;16.70;99.90
35559;DHT22;21661;50.794;-1.066;2023-09-19T05:25:38;16.70;99.90
35559;DHT22;21661;50.794;-1.066;2023-09-19T05:28:04;16.70;99.90
35559;DHT22;21661;50.794;-1.066;2023-09-19T05:30:30;16.60;99.90
35559;DHT22;21661;50.794;-1.066;2023-09-19T05:32:55;16.60;99.90
35559;DHT22;21661;50.794;-1.066;2023-09-19T05:35:22;16.40;99.90
35559;DHT22;21661;50.794;-1.066;2023-09-19T05:37:49;16.40;99.90
35559;DHT22;21661;50.794;-1.066;2023-09-19T05:40:18;16.30;99.90
35559;DHT22;21661;50.794;-1.066;2023-09-19T05:42:44;16.30;99.90
35559;DHT22;21661;50.794;-1.066;2023-09-19T05:45:10;16.30;99.90
35559;DHT22;21661;50.794;-1.066;2023-09-19T05:47:39;16.20;99.90
35559;DHT22;21661;50.794;-1.066;2023-09-19T05:50:06;16.20;99.90
35559;DHT22;21661;50.794;-1.066;2023-09-19T05:52:35;16.30;99.90
35559;DHT22;21661;50.794;-1.066;2023-09-19T05:55:00;16.20;99.90
35559;DHT22;21661;50.794;-1.066;2023-09-19T05:57:26;16.20;99.90
35559;DHT22;21661;50.794;-1.066;2023-09-19T05:59:53;16.20;99.90
35559;DHT22;21661;50.794;-1.066;2023-09-19T06:02:18;16.20;99.90
35559;DHT22;21661;50.794;-1.066;2023-09-19T06:04:45;16.20;99.90
35559;DHT22;21661;50.794;-1.066;2023-09-19T06:07:10;16.20;99.90
35559;DHT22;21661;50.794;-1.066;2023-09-19T06:09:36;16.20;99.90
35559;DHT22;21661;50.794;-1.066;2023-09-19T06:12:03;16.20;99.90
35559;DHT22;21661;50.794;-1.066;2023-09-19T06:14:30;16.20;99.90
35559;DHT22;21661;50.794;-1.066;2023-09-19T06:16:56;16.20;99.90
35559;DHT22;21661;50.794;-1.066;2023-09-19T06:19:21;16.30;99.90
35559;DHT22;21661;50.794;-1.066;2023-09-19T06:21:48;16.30;99.90
35559;DHT22;21661;50.794;-1.066;2023-09-19T06:24:14;16.30;99.90
35559;DHT22;21661;50.794;-1.066;2023-09-19T06:26:40;16.40;99.90
35559;DHT22;21661;50.794;-1.066;2023-09-19T06:29:05;16.40;99.90
35559;DHT22;21661;50.794;-1.066;2023-09-19T06:31:33;16.50;99.90
35559;DHT22;21661;50.794;-1.066;2023-09-19T06:33:58;16.50;99.90
35559;DHT22;21661;50.794;-1.066;2023-09-19T06:36:24;16.50;99.90
35559;DHT22;21661;50.794;-1.066;2023-09-19T06:38:49;16.60;99.90
35559;DHT22;21661;50.794;-1.066;2023-09-19T06:41:17;16.60;99.90
35559;DHT22;21661;50.794;-1.066;2023-09-19T06:43:42;16.60;99.90
35559;DHT22;21661;50.794;-1.066;2023-09-19T06:46:08;16.70;99.90
35559;DHT22;21661;50.794;-1.066;2023-09-19T06:48:35;16.70;99.90
35559;DHT22;21661;50.794;-1.066;2023-09-19T06:51:00;16.70;99.90
35559;DHT22;21661;50.794;-1.066;2023-09-19T06:53:27;16.80;99.90
35559;DHT22;21661;50.794;-1.066;2023-09-19T06:55:52;16.80;99.90
35559;DHT22;21661;50.794;-1.066;2023-09-19T06:58:18;16.90;99.90
35559;DHT22;21661;50.794;-1.066;2023-09-19T07:00:45;16.90;99.90
35559;DHT22;21661;50.794;-1.066;2023-09-19T07:03:11;16.90;99.90
35559;DHT22;21661;50.794;-1.066;2023-09-19T07:05:39;17.00;99.90
35559;DHT22;21661;50.794;-1.066;2023-09-19T07:08:05;17.00;99.90
35559;DHT22;21661;50.794;-1.066;2023-09-19T07:10:36;17.10;99.90
35559;DHT22;21661;50.794;-1.066;2023-09-19T07:13:02;17.10;99.90
35559;DHT22;21661;50.794;-1.066;2023-09-19T07:15:29;17.10;99.90
35559;DHT22;21661;50.794;-1.066;2023-09-19T07:17:56;17.10;99.90
35559;DHT22;21661;50.794;-1.066;2023-09-19T07:20:22;17.20;99.90
35559;DHT22;21661;50.794;-1.066;2023-09-19T07:22:48;17.20;99.90
35559;DHT22;21661;50.794;-1.066;2023-09-19T07:25:16;17.30;99.90
35559;DHT22;21661;50.794;-1.066;2023-09-19T07:27:41;17.30;99.90
35559;DHT22;21661;50.794;-1.066;2023-09-19T07:30:07;17.30;99.90
35559;DHT22;21661;50.794;-1.066;2023-09-19T07:32:33;17.30;99.90
35559;DHT22;21661;50.794;-1.066;2023-09-19T07:35:02;17.40;99.90
35559;DHT22;21661;50.794;-1.066;2023-09-19T07:37:29;17.40;99.90
35559;DHT22;21661;50.794;-1.066;2023-09-19T07:39:54;17.50;99.90
35559;DHT22;21661;50.794;-1.066;2023-09-19T07:42:20;17.50;99.90
35559;DHT22;21661;50.794;-1.066;2023-09-19T07:44:45;17.50;99.90
35559;DHT22;21661;50.794;-1.066;2023-09-19T07:47:16;17.60;99.90
35559;DHT22;21661;50.794;-1.066;2023-09-19T07:49:41;17.60;99.90
35559;DHT22;21661;50.794;-1.066;2023-09-19T07:52:08;17.60;99.90
35559;DHT22;21661;50.794;-1.066;2023-09-19T07:54:34;17.60;99.90
35559;DHT22;21661;50.794;-1.066;2023-09-19T07:57:01;17.60;99.90
35559;DHT22;21661;50.794;-1.066;2023-09-19T07:59:26;17.60;99.90
35559;DHT22;21661;50.794;-1.066;2023-09-19T08:01:52;17.60;99.90
35559;DHT22;21661;50.794;-1.066;2023-09-19T08:04:17;17.60;99.90
35559;DHT22;21661;50.794;-1.066;2023-09-19T08:06:44;17.70;99.90
35559;DHT22;21661;50.794;-1.066;2023-09-19T08:09:10;17.70;99.90
35559;DHT22;21661;50.794;-1.066;2023-09-19T08:11:37;17.70;99.90
35559;DHT22;21661;50.794;-1.066;2023-09-19T08:14:04;17.70;99.90
35559;DHT22;21661;50.794;-1.066;2023-09-19T08:16:31;17.70;99.90
35559;DHT22;21661;50.794;-1.066;2023-09-19T08:18:56;17.70;99.90
35559;DHT22;21661;50.794;-1.066;2023-09-19T08:21:22;17.70;99.90
35559;DHT22;21661;50.794;-1.066;2023-09-19T08:23:49;17.80;99.90
35559;DHT22;21661;50.794;-1.066;2023-09-19T08:26:15;17.80;99.90
35559;DHT22;21661;50.794;-1.066;2023-09-19T08:28:40;17.90;99.90
35559;DHT22;21661;50.794;-1.066;2023-09-19T08:31:07;17.90;99.90
35559;DHT22;21661;50.794;-1.066;2023-09-19T08:33:34;17.90;99.90
35559;DHT22;21661;50.794;-1.066;2023-09-19T08:35:59;17.90;99.90
35559;DHT22;21661;50.794;-1.066;2023-09-19T08:38:25;17.90;99.90
35559;DHT22;21661;50.794;-1.066;2023-09-19T08:40:58;17.90;99.90
35559;DHT22;21661;50.794;-1.066;2023-09-19T08:43:27;17.90;99.90
35559;DHT22;21661;50.794;-1.066;2023-09-19T08:45:54;17.80;99.90
35559;DHT22;21661;50.794;-1.066;2023-09-19T08:48:24;17.90;99.90
35559;DHT22;21661;50.794;-1.066;2023-09-19T08:51:03;17.90;99.90
35559;DHT22;21661;50.794;-1.066;2023-09-19T08:53:33;17.90;99.90
35559;DHT22;21661;50.794;-1.066;2023-09-19T08:56:00;18.00;99.90
35559;DHT22;21661;50.794;-1.066;2023-09-19T08:58:29;18.10;99.90
35559;DHT22;21661;50.794;-1.066;2023-09-19T09:00:56;18.10;99.90
35559;DHT22;21661;50.794;-1.066;2023-09-19T09:03:23;18.10;99.90
35559;DHT22;21661;50.794;-1.066;2023-09-19T09:05:50;18.20;99.90
35559;DHT22;21661;50.794;-1.066;2023-09-19T09:08:16;18.20;99.90
35559;DHT22;21661;50.794;-1.066;2023-09-19T09:10:44;18.20;99.90
35559;DHT22;21661;50.794;-1.066;2023-09-19T09:13:09;18.20;99.90
35559;DHT22;21661;50.794;-1.066;2023-09-19T09:15:38;18.20;99.90
35559;DHT22;21661;50.794;-1.066;2023-09-19T09:18:04;18.30;99.90
35559;DHT22;21661;50.794;-1.066;2023-09-19T09:20:30;18.30;99.90
35559;DHT22;21661;50.794;-1.066;2023-09-19T09:22:58;18.30;99.90
35559;DHT22;21661;50.794;-1.066;2023-09-19T09:28:18;18.30;99.90
35559;DHT22;21661;50.794;-1.066;2023-09-19T09:30:45;18.20;99.90
35559;DHT22;21661;50.794;-1.066;2023-09-19T09:33:11;18.20;99.90
35559;DHT22;21661;50.794;-1.066;2023-09-19T09:35:38;18.20;99.90
35559;DHT22;21661;50.794;-1.066;2023-09-19T09:38:12;18.20;99.90
35559;DHT22;21661;50.794;-1.066;2023-09-19T09:40:45;18.20;99.90
35559;DHT22;21661;50.794;-1.066;2023-09-19T09:43:32;18.20;99.90
35559;DHT22;21661;50.794;-1.066;2023-09-19T09:46:11;18.20;99.90
35559;DHT22;21661;50.794;-1.066;2023-09-19T09:51:51;18.20;99.90
35559;DHT22;21661;50.794;-1.066;2023-09-19T09:54:25;18.20;99.90
35559;DHT22;21661;50.794;-1.066;2023-09-19T09:56:59;18.10;99.90
35559;DHT22;21661;50.794;-1.066;2023-09-19T10:02:20;18.10;99.90
35559;DHT22;21661;50.794;-1.066;2023-09-19T10:04:54;18.20;99.90
35559;DHT22;21661;50.794;-1.066;2023-09-19T10:07:35;18.20;99.90
35559;DHT22;21661;50.794;-1.066;2023-09-19T10:10:06;18.20;99.90
35559;DHT22;21661;50.794;-1.066;2023-09-19T10:12:42;18.20;99.90
35559;DHT22;21661;50.794;-1.066;2023-09-19T10:15:09;18.20;99.90
35559;DHT22;21661;50.794;-1.066;2023-09-19T10:17:36;18.20;99.90
35559;DHT22;21661;50.794;-1.066;2023-09-19T10:20:02;18.30;99.90
35559;DHT22;21661;50.794;-1.066;2023-09-19T10:22:47;18.30;99.90
35559;DHT22;21661;50.794;-1.066;2023-09-19T10:25:25;18.20;99.90
35559;DHT22;21661;50.794;-1.066;2023-09-19T10:27:54;18.20;99.90
35559;DHT22;21661;50.794;-1.066;2023-09-19T10:30:22;18.20;99.90
35559;DHT22;21661;50.794;-1.066;2023-09-19T10:32:48;18.20;99.90
35559;DHT22;21661;50.794;-1.066;2023-09-19T10:35:19;18.20;99.90
35559;DHT22;21661;50.794;-1.066;2023-09-19T10:37:45;18.20;99.90
35559;DHT22;21661;50.794;-1.066;2023-09-19T10:40:15;18.20;99.90
35559;DHT22;21661;50.794;-1.066;2023-09-19T10:42:41;18.20;99.90
35559;DHT22;21661;50.794;-1.066;2023-09-19T10:45:07;18.20;99.90
35559;DHT22;21661;50.794;-1.066;2023-09-19T10:47:38;18.20;99.90
35559;DHT22;21661;50.794;-1.066;2023-09-19T10:50:03;18.20;99.90
35559;DHT22;21661;50.794;-1.066;2023-09-19T10:52:37;18.20;99.90
35559;DHT22;21661;50.794;-1.066;2023-09-19T10:55:04;18.20;99.90
35559;DHT22;21661;50.794;-1.066;2023-09-19T10:57:31;18.10;99.90
35559;DHT22;21661;50.794;-1.066;2023-09-19T11:00:04;18.10;99.90
35559;DHT22;21661;50.794;-1.066;2023-09-19T11:05:34;17.80;99.90
35559;DHT22;21661;50.794;-1.066;2023-09-19T11:08:00;17.80;99.90
35559;DHT22;21661;50.794;-1.066;2023-09-19T11:13:29;17.80;99.90
35559;DHT22;21661;50.794;-1.066;2023-09-19T11:26:40;17.80;99.90
35559;DHT22;21661;50.794;-1.066;2023-09-19T11:29:25;17.90;99.90
35559;DHT22;21661;50.794;-1.066;2023-09-19T11:31:51;17.90;99.90
35559;DHT22;21661;50.794;-1.066;2023-09-19T11:37:00;17.90;99.90
35559;DHT22;21661;50.794;-1.066;2023-09-19T11:39:29;17.90;99.90
35559;DHT22;21661;50.794;-1.066;2023-09-19T11:41:55;17.90;99.90
35559;DHT22;21661;50.794;-1.066;2023-09-19T11:46:52;17.80;99.90
35559;DHT22;21661;50.794;-1.066;2023-09-19T11:49:18;17.80;99.90
35559;DHT22;21661;50.794;-1.066;2023-09-19T11:51:52;17.80;99.90
35559;DHT22;21661;50.794;-1.066;2023-09-19T11:54:17;17.80;99.90
35559;DHT22;21661;50.794;-1.066;2023-09-19T11:56:48;17.80;99.90
35559;DHT22;21661;50.794;-1.066;2023-09-19T11:59:28;17.80;99.90
35559;DHT22;21661;50.794;-1.066;2023-09-19T12:04:39;17.70;99.90
35559;DHT22;21661;50.794;-1.066;2023-09-19T12:07:08;17.70;99.90
35559;DHT22;21661;50.794;-1.066;2023-09-19T12:09:50;17.80;99.90
35559;DHT22;21661;50.794;-1.066;2023-09-19T12:12:23;17.80;99.90
35559;DHT22;21661;50.794;-1.066;2023-09-19T12:14:51;17.90;99.90
35559;DHT22;21661;50.794;-1.066;2023-09-19T12:17:17;17.90;99.90
35559;DHT22;21661;50.794;-1.066;2023-09-19T12:19:51;17.90;99.90
35559;DHT22;21661;50.794;-1.066;2023-09-19T12:22:17;17.90;99.90
35559;DHT22;21661;50.794;-1.066;2023-09-19T12:24:44;18.00;99.90
35559;DHT22;21661;50.794;-1.066;2023-09-19T12:27:11;18.00;99.90
35559;DHT22;21661;50.794;-1.066;2023-09-19T12:29:43;18.00;99.90
35559;DHT22;21661;50.794;-1.066;2023-09-19T12:32:09;17.90;99.90
35559;DHT22;21661;50.794;-1.066;2023-09-19T12:34:35;17.90;99.90
35559;DHT22;21661;50.794;-1.066;2023-09-19T12:37:13;18.00;99.90
35559;DHT22;21661;50.794;-1.066;2023-09-19T12:39:52;18.00;99.90
35559;DHT22;21661;50.794;-1.066;2023-09-19T12:42:24;18.10;99.90
35559;DHT22;21661;50.794;-1.066;2023-09-19T12:44:52;18.10;99.90
35559;DHT22;21661;50.794;-1.066;2023-09-19T12:47:22;18.10;99.90
35559;DHT22;21661;50.794;-1.066;2023-09-19T12:52:56;18.00;99.90
35559;DHT22;21661;50.794;-1.066;2023-09-19T12:55:28;18.00;99.90
35559;DHT22;21661;50.794;-1.066;2023-09-19T13:00:39;18.10;99.90
35559;DHT22;21661;50.794;-1.066;2023-09-19T13:05:58;18.10;99.90
35559;DHT22;21661;50.794;-1.066;2023-09-19T13:08:32;18.10;99.90
35559;DHT22;21661;50.794;-1.066;2023-09-19T13:13:27;18.20;99.90
35559;DHT22;21661;50.794;-1.066;2023-09-19T13:15:53;18.20;99.90
35559;DHT22;21661;50.794;-1.066;2023-09-19T13:18:19;18.20;99.90
35559;DHT22;21661;50.794;-1.066;2023-09-19T13:21:05;18.20;99.90
35559;DHT22;21661;50.794;-1.066;2023-09-19T13:23:30;18.20;99.90
35559;DHT22;21661;50.794;-1.066;2023-09-19T13:25:56;18.20;99.90
35559;DHT22;21661;50.794;-1.066;2023-09-19T13:28:22;18.30;99.90
35559;DHT22;21661;50.794;-1.066;2023-09-19T13:30:47;18.30;99.90
35559;DHT22;21661;50.794;-1.066;2023-09-19T13:33:13;18.30;99.90
35559;DHT22;21661;50.794;-1.066;2023-09-19T13:35:46;18.40;99.90
35559;DHT22;21661;50.794;-1.066;2023-09-19T13:38:13;18.40;99.90
35559;DHT22;21661;50.794;-1.066;2023-09-19T13:40:39;18.40;99.90
35559;DHT22;21661;50.794;-1.066;2023-09-19T13:43:10;18.50;99.90
35559;DHT22;21661;50.794;-1.066;2023-09-19T13:45:36;18.60;99.90
35559;DHT22;21661;50.794;-1.066;2023-09-19T13:48:02;18.50;99.90
35559;DHT22;21661;50.794;-1.066;2023-09-19T13:50:28;18.50;99.90
35559;DHT22;21661;50.794;-1.066;2023-09-19T13:52:55;18.50;99.90
35559;DHT22;21661;50.794;-1.066;2023-09-19T13:55:20;18.50;99.90
35559;DHT22;21661;50.794;-1.066;2023-09-19T13:57:46;18.50;99.90
35559;DHT22;21661;50.794;-1.066;2023-09-19T14:00:15;18.40;99.90
35559;DHT22;21661;50.794;-1.066;2023-09-19T14:02:41;18.40;99.90
35559;DHT22;21661;50.794;-1.066;2023-09-19T14:05:09;18.40;99.90
35559;DHT22;21661;50.794;-1.066;2023-09-19T14:07:37;18.50;99.90
35559;DHT22;21661;50.794;-1.066;2023-09-19T14:10:03;18.50;99.90
35559;DHT22;21661;50.794;-1.066;2023-09-19T14:12:29;18.50;99.90
35559;DHT22;21661;50.794;-1.066;2023-09-19T14:14:55;18.60;99.90
35559;DHT22;21661;50.794;-1.066;2023-09-19T14:17:21;18.60;99.90
35559;DHT22;21661;50.794;-1.066;2023-09-19T14:19:47;18.50;99.90
35559;DHT22;21661;50.794;-1.066;2023-09-19T14:22:12;18.60;99.90
35559;DHT22;21661;50.794;-1.066;2023-09-19T14:24:39;18.60;99.90
35559;DHT22;21661;50.794;-1.066;2023-09-19T14:27:06;18.60;99.90
35559;DHT22;21661;50.794;-1.066;2023-09-19T14:29:34;18.60;99.90
35559;DHT22;21661;50.794;-1.066;2023-09-19T14:31:59;18.60;99.90
35559;DHT22;21661;50.794;-1.066;2023-09-19T14:34:25;18.60;99.90
35559;DHT22;21661;50.794;-1.066;2023-09-19T14:36:50;18.60;99.90
35559;DHT22;21661;50.794;-1.066;2023-09-19T14:39:16;18.50;99.90
35559;DHT22;21661;50.794;-1.066;2023-09-19T14:41:41;18.50;99.90
35559;DHT22;21661;50.794;-1.066;2023-09-19T14:44:07;18.50;99.90
35559;DHT22;21661;50.794;-1.066;2023-09-19T14:46:32;18.40;99.90
35559;DHT22;21661;50.794;-1.066;2023-09-19T14:48:58;18.40;99.90
35559;DHT22;21661;50.794;-1.066;2023-09-19T14:51:29;18.40;99.90
35559;DHT22;21661;50.794;-1.066;2023-09-19T14:53:54;18.40;99.90
35559;DHT22;21661;50.794;-1.066;2023-09-19T14:56:20;18.40;99.90
35559;DHT22;21661;50.794;-1.066;2023-09-19T14:58:46;18.40;99.90
35559;DHT22;21661;50.794;-1.066;2023-09-19T15:01:13;18.50;99.90
35559;DHT22;21661;50.794;-1.066;2023-09-19T15:03:39;18.50;99.90
35559;DHT22;21661;50.794;-1.066;2023-09-19T15:06:08;18.50;99.90
35559;DHT22;21661;50.794;-1.066;2023-09-19T15:08:37;18.50;99.90
35559;DHT22;21661;50.794;-1.066;2023-09-19T15:11:06;18.50;99.90
35559;DHT22;21661;50.794;-1.066;2023-09-19T15:13:32;18.60;99.90
35559;DHT22;21661;50.794;-1.066;2023-09-19T15:16:07;18.70;99.90
35559;DHT22;21661;50.794;-1.066;2023-09-19T15:18:36;18.70;99.90
35559;DHT22;21661;50.794;-1.066;2023-09-19T15:21:03;18.70;99.90
35559;DHT22;21661;50.794;-1.066;2023-09-19T15:23:31;18.80;99.90
35559;DHT22;21661;50.794;-1.066;2023-09-19T15:25:59;18.80;99.90
35559;DHT22;21661;50.794;-1.066;2023-09-19T15:28:25;18.90;99.90
35559;DHT22;21661;50.794;-1.066;2023-09-19T15:30:56;18.90;99.90
35559;DHT22;21661;50.794;-1.066;2023-09-19T15:33:22;18.90;99.90
35559;DHT22;21661;50.794;-1.066;2023-09-19T15:35:48;18.90;99.90
35559;DHT22;21661;50.794;-1.066;2023-09-19T15:38:14;18.90;99.90
35559;DHT22;21661;50.794;-1.066;2023-09-19T15:40:45;18.90;99.90
35559;DHT22;21661;50.794;-1.066;2023-09-19T15:43:11;18.80;99.90
35559;DHT22;21661;50.794;-1.066;2023-09-19T15:45:39;18.80;99.90
35559;DHT22;21661;50.794;-1.066;2023-09-19T15:48:05;18.80;99.90
35559;DHT22;21661;50.794;-1.066;2023-09-19T15:50:31;18.80;99.90
35559;DHT22;21661;50.794;-1.066;2023-09-19T15:52:56;18.70;99.90
35559;DHT22;21661;50.794;-1.066;2023-09-19T15:55:23;18.60;99.90
35559;DHT22;21661;50.794;-1.066;2023-09-19T15:57:48;18.60;99.90
35559;DHT22;21661;50.794;-1.066;2023-09-19T16:00:14;18.70;99.90
35559;DHT22;21661;50.794;-1.066;2023-09-19T16:02:42;18.70;99.90
35559;DHT22;21661;50.794;-1.066;2023-09-19T16:05:08;18.80;99.90
35559;DHT22;21661;50.794;-1.066;2023-09-19T16:07:33;18.80;99.90
35559;DHT22;21661;50.794;-1.066;2023-09-19T16:09:59;18.80;99.90
35559;DHT22;21661;50.794;-1.066;2023-09-19T16:12:25;18.90;99.90
35559;DHT22;21661;50.794;-1.066;2023-09-19T16:14:51;18.80;99.90
35559;DHT22;21661;50.794;-1.066;2023-09-19T16:17:16;18.90;99.90